Time;durP1;ratioP1;P1;durP2;ratioP2;P2;SDS_P1;SDS_P2;PMS_P1;PMS_P2;Temp;Humidity;BMP_temperature;BMP_pressure;BME280_temperature;BME280_humidity;BME280_pressure;Samples;Min_cycle;Max_cycle;Signal;HPM_P1;HPM_P2
2022/02/09 00:03:59;;;;;;;4.50;2.13;;;;;;;8.03;77.23;101311.22;1088121;39;20740;-80
2022/02/09 00:06:39;;;;;;;4.43;2.33;;;;;;;7.78;78.13;101320.75;1087222;54;20038;-81
2022/02/09 00:07:50;;;;;;;4.85;2.30;;;;;;;7.71;78.19;101319.41;1089688;46;20038;-80
2022/02/09 00:08:52;;;;;;;4.28;2.20;;;;;;;7.65;78.47;101318.81;1089121;39;20516;-80
2022/02/09 00:09:56;;;;;;;4.43;2.03;;;;;;;7.84;78.12;101320.34;1087033;54;20038;-80
2022/02/09 00:11:04;;;;;;;5.50;2.40;;;;;;;7.72;78.11;101321.13;1087642;39;20705;-79
2022/02/09 00:12:09;;;;;;;4.07;1.88;;;;;;;7.74;78.35;101316.56;1087745;39;20763;-80
2022/02/09 00:13:33;;;;;;;5.88;1.90;;;;;;;7.78;78.40;101320.75;1087288;54;20046;-79
2022/02/09 00:14:44;;;;;;;4.30;1.95;;;;;;;7.82;77.97;101316.94;1087264;54;20057;-79
2022/02/09 00:16:06;;;;;;;4.97;1.80;;;;;;;7.85;77.90;101316.72;1087202;54;20057;-79
2022/02/09 00:17:28;;;;;;;4.47;2.05;;;;;;;7.76;78.02;101323.50;1087239;54;20094;-78
2022/02/09 00:18:41;;;;;;;4.75;2.08;;;;;;;7.69;78.36;101326.63;1087176;54;20034;-80
2022/02/09 00:19:58;;;;;;;5.18;2.28;;;;;;;7.69;78.53;101330.16;1086960;54;20030;-79
2022/02/09 00:22:38;;;;;;;5.00;1.75;;;;;;;7.77;78.33;101319.91;1086889;54;20069;-80
2022/02/09 00:24:09;;;;;;;4.72;2.00;;;;;;;7.85;77.57;101332.72;1087008;54;20042;-80
2022/02/09 00:34:04;;;;;;;4.32;2.20;;;;;;;7.81;78.06;101304.59;1087549;39;20498;-78
2022/02/09 00:35:43;;;;;;;4.60;1.98;;;;;;;7.77;78.32;101308.38;1086025;54;20035;-78
2022/02/09 00:39:49;;;;;;;4.57;2.33;;;;;;;7.85;77.94;101306.09;1085014;54;20034;-79
2022/02/09 00:41:18;;;;;;;5.07;2.20;;;;;;;7.80;77.68;101298.38;1085325;54;20042;-78
2022/02/09 00:42:39;;;;;;;6.55;2.15;;;;;;;7.67;78.43;101300.13;1085669;54;20785;-79
2022/02/09 00:44:09;;;;;;;4.35;2.00;;;;;;;7.80;78.07;101308.19;1085511;54;20034;-78
2022/02/09 00:59:48;;;;;;;3.80;2.05;;;;;;;8.07;76.82;101288.75;1086341;54;20073;-79
2022/02/09 01:38:45;;;;;;;3.60;1.35;;;;;;;7.93;76.02;101282.53;1085958;54;20035;-78
2022/02/09 01:39:55;;;;;;;4.03;1.63;;;;;;;8.04;75.63;101281.81;1085303;54;20035;-78
2022/02/09 01:56:09;;;;;;;3.60;1.52;;;;;;;7.93;75.87;101274.53;1085607;54;20294;-80
2022/02/09 01:57:13;;;;;;;3.55;1.42;;;;;;;8.04;75.50;101267.63;1087970;39;20418;-78
2022/02/09 01:58:18;;;;;;;3.22;1.30;;;;;;;8.13;75.49;101283.03;1086437;54;20049;-78
2022/02/09 01:59:19;;;;;;;3.33;1.52;;;;;;;8.02;75.46;101270.41;1086386;54;20034;-78
2022/02/09 02:00:26;;;;;;;4.38;1.70;;;;;;;7.90;75.62;101273.84;1086573;54;20038;-78
2022/02/09 02:01:30;;;;;;;3.50;1.50;;;;;;;7.95;75.77;101263.78;1086613;47;20058;-78
2022/02/09 02:02:32;;;;;;;3.42;1.52;;;;;;;7.97;75.44;101268.03;1086507;54;20102;-78
2022/02/09 02:03:40;;;;;;;4.78;1.67;;;;;;;8.15;75.36;101270.47;1086505;54;20629;-79
2022/02/09 02:04:42;;;;;;;3.90;1.70;;;;;;;8.05;75.29;101256.03;1086587;54;20098;-79
2022/02/09 02:05:51;;;;;;;4.05;1.58;;;;;;;8.16;75.13;101266.00;1086671;46;20097;-78
2022/02/09 02:06:54;;;;;;;3.28;1.50;;;;;;;8.04;75.28;101252.53;1086595;54;20108;-79
2022/02/09 02:08:00;;;;;;;4.28;1.50;;;;;;;8.02;75.60;101248.25;1086506;54;20051;-78
2022/02/09 02:09:03;;;;;;;4.00;1.70;;;;;;;8.10;75.31;101256.59;1086442;54;20038;-78
2022/02/09 02:10:15;;;;;;;3.65;1.80;;;;;;;8.02;75.46;101254.44;1086754;54;20121;-78
2022/02/09 02:11:24;;;;;;;4.22;1.52;;;;;;;8.04;75.22;101252.53;1086623;54;20666;-79
2022/02/09 02:12:26;;;;;;;4.00;1.80;;;;;;;7.96;75.25;101258.34;1085444;54;20655;-78
2022/02/09 02:14:58;;;;;;;3.78;1.83;;;;;;;7.89;75.29;101243.72;1085768;54;20070;-79
2022/02/09 02:17:31;;;;;;;4.15;1.75;;;;;;;7.99;75.10;101240.47;1087327;54;20030;-78
2022/02/09 02:18:34;;;;;;;4.15;1.98;;;;;;;8.07;75.07;101238.16;1087256;54;20035;-78
2022/02/09 02:19:46;;;;;;;3.83;2.00;;;;;;;8.08;75.02;101240.69;1087270;54;20031;-79
2022/02/09 02:21:07;;;;;;;3.13;1.60;;;;;;;8.15;74.42;101235.00;1087012;54;20046;-78
2022/02/09 02:22:31;;;;;;;3.95;1.70;;;;;;;8.08;74.67;101231.88;1085693;47;20887;-80
2022/02/09 02:23:49;;;;;;;4.00;1.73;;;;;;;7.98;75.17;101228.97;1086250;54;20054;-80
2022/02/09 02:25:37;;;;;;;3.78;1.90;;;;;;;8.00;74.77;101239.50;1086480;54;20889;-78
2022/02/09 02:26:50;;;;;;;3.63;1.92;;;;;;;7.95;74.85;101226.50;1086039;54;20066;-79
2022/02/09 02:33:25;;;;;;;3.30;1.38;;;;;;;8.03;74.88;101224.19;1086228;54;20046;-79
2022/02/09 02:37:20;;;;;;;3.42;1.65;;;;;;;7.93;75.03;101231.94;1086579;54;20034;-81
2022/02/09 02:47:14;;;;;;;3.45;1.42;;;;;;;7.83;75.23;101221.94;1090031;39;20607;-79
2022/02/09 02:57:42;;;;;;;3.70;1.58;;;;;;;7.83;75.63;101217.50;1086083;54;20043;-78
2022/02/09 03:09:20;;;;;;;4.40;1.60;;;;;;;7.78;75.75;101208.94;1085458;54;20038;-77
2022/02/09 03:10:55;;;;;;;3.72;1.60;;;;;;;7.95;75.54;101214.00;1085988;54;20038;-79
2022/02/09 03:12:12;;;;;;;4.60;1.20;;;;;;;7.87;75.35;101208.34;1086368;54;20042;-79
2022/02/09 03:13:20;;;;;;;3.42;1.50;;;;;;;7.84;75.46;101213.84;1085975;54;20046;-79
2022/02/09 03:14:30;;;;;;;2.50;1.13;;;;;;;7.94;75.33;101211.47;1086356;54;20038;-79
2022/02/09 03:15:36;;;;;;;3.63;1.60;;;;;;;7.89;75.50;101214.41;1086288;54;20042;-79
2022/02/09 03:16:45;;;;;;;4.00;1.60;;;;;;;7.91;75.61;101211.66;1085884;54;20042;-78
2022/02/09 03:17:59;;;;;;;3.20;1.20;;;;;;;7.92;75.64;101203.59;1086393;54;20027;-79
2022/02/09 03:20:25;;;;;;;4.82;1.63;;;;;;;7.86;75.46;101206.63;1086066;54;20038;-79
2022/02/09 03:21:39;;;;;;;3.75;1.50;;;;;;;8.03;75.13;101213.53;1086005;54;20057;-78
2022/02/09 03:22:52;;;;;;;3.70;1.60;;;;;;;8.09;74.87;101198.97;1087431;54;20026;-80
2022/02/09 03:23:58;;;;;;;3.63;1.50;;;;;;;7.97;75.01;101198.81;1087055;54;20041;-79
2022/02/09 03:26:59;;;;;;;4.47;1.60;;;;;;;7.94;75.32;101198.16;1086367;54;20011;-79
2022/02/09 03:46:34;;;;;;;3.28;1.50;;;;;;;7.96;74.76;101205.06;1087300;54;20049;-78
2022/02/09 03:47:41;;;;;;;3.40;1.30;;;;;;;7.95;74.82;101199.84;1087729;54;20034;-79
2022/02/09 03:49:01;;;;;;;3.65;1.60;;;;;;;7.92;74.68;101203.59;1088549;46;20035;-81
2022/02/09 03:50:35;;;;;;;4.57;1.50;;;;;;;7.89;74.76;101193.13;1087487;54;20034;-79
2022/02/09 03:54:29;;;;;;;3.60;1.50;;;;;;;7.91;74.67;101196.53;1088703;46;20030;-80
2022/02/09 03:55:42;;;;;;;3.75;1.52;;;;;;;7.91;74.86;101196.53;1089259;39;20414;-78
2022/02/09 03:57:02;;;;;;;3.80;1.65;;;;;;;8.08;74.29;101183.94;1087423;54;20042;-79
2022/02/09 03:58:03;;;;;;;4.35;2.35;;;;;;;8.05;74.29;101181.47;1087953;54;20038;-81
2022/02/09 03:59:07;;;;;;;3.22;1.48;;;;;;;8.21;73.85;101189.31;1087997;54;20084;-80
2022/02/09 04:00:10;;;;;;;4.03;1.42;;;;;;;8.22;73.55;101188.34;1089444;39;20524;-80
2022/02/09 04:01:15;;;;;;;3.80;1.65;;;;;;;8.09;74.04;101181.16;1087987;54;20090;-79
2022/02/09 04:02:17;;;;;;;3.65;1.42;;;;;;;8.18;73.71;101182.38;1088083;54;20021;-79
2022/02/09 04:08:04;;;;;;;3.58;1.70;;;;;;;8.35;73.14;101180.38;1086547;54;20022;-79
2022/02/09 04:09:12;;;;;;;3.67;1.60;;;;;;;8.33;73.13;101179.63;1087693;54;20014;-78
2022/02/09 04:12:50;;;;;;;;;;;;;;;;;;;;;
2022/02/09 04:15:14;;;;;;;;;;;;;;;;;;;;;
2022/02/09 04:17:09;;;;;;;3.47;1.70;;;;;;;7.96;73.61;101178.44;1087531;39;20456;-80
2022/02/09 04:18:49;;;;;;;3.70;1.70;;;;;;;7.88;73.80;101172.78;1087030;39;20517;-78
2022/02/09 04:20:19;;;;;;;4.20;2.20;;;;;;;7.86;74.02;101182.66;1086690;54;20052;-80
2022/02/09 04:38:13;;;;;;;4.00;1.75;;;;;;;7.84;73.84;101181.91;1087470;54;20038;-79
2022/02/09 04:39:24;;;;;;;5.75;1.98;;;;;;;7.84;74.05;101176.56;1087520;54;20050;-81
2022/02/09 04:41:21;;;;;;;4.90;1.90;;;;;;;7.87;74.16;101175.53;1086532;54;20065;-81
2022/02/09 04:42:16;;;;;;;3.75;2.00;;;;;;;7.82;74.21;101175.84;1087184;54;20035;-81
2022/02/09 04:43:36;;;;;;;4.00;2.10;;;;;;;7.77;74.28;101183.25;1086677;54;20049;-81
2022/02/09 04:44:51;;;;;;;3.95;1.75;;;;;;;7.89;73.90;101179.81;1087141;54;20038;-83
2022/02/09 04:46:16;;;;;;;4.47;1.77;;;;;;;7.95;73.86;101174.06;1087652;54;20042;-83
2022/02/09 04:47:32;;;;;;;4.30;2.03;;;;;;;7.88;73.81;101183.44;1087530;54;20045;-79
2022/02/09 04:49:02;;;;;;;4.80;2.20;;;;;;;7.93;73.96;101183.13;1087387;54;20046;-81
2022/02/09 04:50:16;;;;;;;4.75;1.83;;;;;;;7.86;73.92;101177.34;1088141;54;20622;-79
2022/02/09 04:51:25;;;;;;;3.75;1.63;;;;;;;7.83;74.04;101185.53;1087843;54;20374;-81
2022/02/09 04:52:37;;;;;;;4.50;2.38;;;;;;;7.85;74.06;101178.28;1088102;54;20037;-80
2022/02/09 04:55:08;;;;;;;4.22;2.00;;;;;;;7.81;74.01;101182.13;1088106;54;20034;-81
2022/02/09 04:56:29;;;;;;;4.68;2.10;;;;;;;7.79;73.92;101178.69;1087629;54;20026;-79
2022/02/09 04:57:41;;;;;;;4.15;2.05;;;;;;;7.88;73.76;101182.59;1087665;54;20046;-81
2022/02/09 04:58:51;;;;;;;3.88;1.90;;;;;;;7.83;73.79;101182.00;1088179;54;20098;-80
2022/02/09 05:00:10;;;;;;;3.97;1.90;;;;;;;7.83;73.85;101182.88;1087728;54;20030;-80
2022/02/09 05:01:41;;;;;;;5.88;2.55;;;;;;;7.84;73.69;101187.22;1087596;54;20035;-81
2022/02/09 05:04:16;;;;;;;;;;;;;;;7.76;73.66;101179.75;1088268;54;20050;-83
2022/02/09 05:19:34;;;;;;;5.97;2.78;;;;;;;8.00;71.42;101170.28;1088433;54;20019;-81
2022/02/09 05:23:25;;;;;;;5.32;2.85;;;;;;;7.95;71.22;101168.75;1087174;54;20038;-81
2022/02/09 05:26:09;;;;;;;5.50;2.95;;;;;;;8.03;71.00;101168.25;1088174;54;20064;-80
2022/02/09 05:27:21;;;;;;;6.25;3.20;;;;;;;8.11;70.90;101167.75;1088358;54;20161;-80
2022/02/09 05:28:25;;;;;;;4.55;2.53;;;;;;;8.22;70.62;101159.03;1088262;54;20087;-81
2022/02/09 05:29:27;;;;;;;4.68;2.67;;;;;;;8.32;70.29;101164.59;1094163;39;20720;-80
2022/02/09 05:30:34;;;;;;;4.80;2.50;;;;;;;8.39;70.32;101156.09;1088453;54;20030;-81
2022/02/09 05:31:36;;;;;;;4.85;2.72;;;;;;;8.43;70.07;101151.41;1088403;54;20031;-80
2022/02/09 05:32:42;;;;;;;5.25;2.60;;;;;;;8.46;70.07;101155.69;1088360;54;20134;-81
2022/02/09 05:33:49;;;;;;;6.13;3.58;;;;;;;8.40;69.99;101155.16;1088255;54;20033;-79
2022/02/09 05:34:51;;;;;;;6.13;3.67;;;;;;;8.41;69.94;101158.66;1088166;54;20035;-80
2022/02/09 05:35:57;;;;;;;6.22;3.58;;;;;;;8.40;70.34;101162.31;1088349;54;20034;-80
2022/02/09 05:37:00;;;;;;;5.30;3.47;;;;;;;8.36;70.07;101152.78;1088270;54;20045;-82
2022/02/09 05:38:06;;;;;;;5.05;3.38;;;;;;;8.51;70.01;101151.78;1088198;54;20038;-80
2022/02/09 05:39:08;;;;;;;5.70;3.13;;;;;;;8.57;69.93;101150.50;1088283;54;20030;-82
2022/02/09 05:40:22;;;;;;;4.55;2.90;;;;;;;8.62;69.52;101159.06;1088272;54;20030;-80
2022/02/09 05:41:27;;;;;;;4.72;2.97;;;;;;;8.62;69.55;101155.53;1088237;54;20030;-82
2022/02/09 05:42:31;;;;;;;4.75;2.70;;;;;;;8.69;69.25;101151.50;1088346;54;20042;-82
2022/02/09 05:43:36;;;;;;;4.60;2.90;;;;;;;8.72;69.24;101156.59;1088226;54;20556;-83
2022/02/09 05:48:43;;;;;;;4.75;2.88;;;;;;;8.60;69.54;101157.47;1088188;54;20568;-83
2022/02/09 05:49:44;;;;;;;5.93;3.03;;;;;;;8.42;69.72;101160.34;1087763;54;20041;-80
2022/02/09 05:52:18;;;;;;;7.53;3.90;;;;;;;8.38;69.94;101164.22;1088005;54;20038;-80
2022/02/09 05:53:23;;;;;;;6.80;3.80;;;;;;;8.25;69.97;101164.19;1088325;54;20069;-82
2022/02/09 05:55:08;;;;;;;7.18;3.58;;;;;;;8.31;69.89;101169.09;1088146;54;20076;-79
2022/02/09 05:57:45;;;;;;;6.80;3.70;;;;;;;8.16;70.30;101173.63;1087889;54;20025;-81
2022/02/09 05:59:15;;;;;;;;;;;;;;;8.14;70.47;101172.88;1088292;54;20552;-81
2022/02/09 06:00:22;;;;;;;6.22;3.72;;;;;;;8.14;70.63;101172.88;1087715;54;19973;-80
2022/02/09 06:01:40;;;;;;;5.03;3.15;;;;;;;8.15;70.32;101165.75;1088302;54;20011;-80
2022/02/09 06:02:44;;;;;;;6.55;3.35;;;;;;;8.15;70.60;101169.25;1088570;54;20034;-81
2022/02/09 06:03:46;;;;;;;4.82;3.10;;;;;;;8.20;70.47;101172.47;1091403;46;20031;-81
2022/02/09 06:11:25;;;;;;;5.68;3.50;;;;;;;8.00;71.40;101162.28;1088622;54;20074;-81
2022/02/09 06:20:29;;;;;;;6.85;4.57;;;;;;;8.09;71.48;101151.84;1087647;54;20065;-79
2022/02/09 06:26:06;;;;;;;7.35;4.05;;;;;;;7.97;72.34;101156.19;1087596;54;20045;-80
2022/02/09 06:29:12;;;;;;;7.35;4.28;;;;;;;8.02;72.46;101166.53;1087531;54;20102;-79
2022/02/09 06:30:28;;;;;;;6.68;3.67;;;;;;;7.94;72.70;101161.72;1087396;54;20058;-79
2022/02/09 06:36:10;;;;;;;6.20;4.00;;;;;;;7.93;72.86;101169.81;1087640;54;20039;-80
2022/02/09 06:41:03;;;;;;;6.82;4.03;;;;;;;8.08;72.64;101166.13;1086681;54;20030;-80
2022/02/09 06:42:05;;;;;;;8.15;3.58;;;;;;;8.09;72.58;101169.66;1087495;54;20065;-80
2022/02/09 06:43:11;;;;;;;7.05;3.60;;;;;;;8.19;72.65;101168.09;1087459;54;20033;-79
2022/02/09 06:44:13;;;;;;;9.60;4.05;;;;;;;8.11;72.84;101167.75;1087665;54;20037;-81
2022/02/09 06:45:21;;;;;;;7.47;4.15;;;;;;;8.01;73.08;101162.16;1087482;54;20553;-82
2022/02/09 06:46:24;;;;;;;8.48;4.38;;;;;;;7.97;73.23;101166.84;1088052;54;20023;-82
2022/02/09 06:47:29;;;;;;;7.40;3.40;;;;;;;8.10;73.02;101171.38;1088079;54;20038;-79
2022/02/09 06:48:32;;;;;;;5.75;3.53;;;;;;;8.03;73.08;101170.91;1087770;54;20061;-81
2022/02/09 06:49:58;;;;;;;6.57;3.90;;;;;;;8.03;73.21;101176.25;1087543;54;20615;-82
2022/02/09 06:51:09;;;;;;;9.63;3.75;;;;;;;8.14;72.86;101167.53;1087712;54;20030;-81
2022/02/09 06:52:11;;;;;;;6.40;3.00;;;;;;;8.02;73.37;101171.03;1087457;54;20047;-80
2022/02/09 06:53:29;;;;;;;5.90;3.33;;;;;;;8.01;73.30;101166.66;1087606;54;20015;-79
2022/02/09 06:54:43;;;;;;;6.28;3.10;;;;;;;8.10;73.22;101161.56;1087589;54;20035;-79
2022/02/09 06:55:52;;;;;;;9.82;3.95;;;;;;;8.10;73.20;101171.38;1087721;54;20034;-80
2022/02/09 06:57:05;;;;;;;9.30;3.40;;;;;;;8.09;72.96;101167.00;1087498;54;20034;-80
2022/02/09 06:58:16;;;;;;;9.75;3.55;;;;;;;8.14;73.10;101167.53;1087455;54;20038;-80
2022/02/09 06:59:28;;;;;;;6.93;3.40;;;;;;;8.09;73.35;101172.31;1087640;54;20049;-80
2022/02/09 07:00:36;;;;;;;6.47;3.80;;;;;;;8.10;73.31;101171.38;1087242;54;20540;-81
2022/02/09 07:01:38;;;;;;;7.93;3.63;;;;;;;8.12;73.42;101166.81;1087554;54;20026;-80
2022/02/09 07:02:44;;;;;;;5.45;3.30;;;;;;;8.11;73.27;101168.59;1089744;31;20501;-80
2022/02/09 07:03:48;;;;;;;7.60;3.92;;;;;;;8.28;72.96;101172.81;1087543;54;20034;-80
2022/02/09 07:04:52;;;;;;;8.38;3.20;;;;;;;8.20;73.23;101171.59;1087496;54;20033;-80
2022/02/09 07:05:56;;;;;;;9.40;3.30;;;;;;;8.24;73.09;101173.97;1090149;39;20471;-80
2022/02/09 07:07:05;;;;;;;7.78;2.92;;;;;;;8.27;72.94;101179.09;1087533;54;20046;-80
2022/02/09 07:08:10;;;;;;;5.55;2.83;;;;;;;8.22;72.79;101181.19;1087485;54;20026;-80
2022/02/09 07:09:12;;;;;;;6.97;3.22;;;;;;;8.31;72.80;101173.56;1087559;54;20031;-80
2022/02/09 07:10:38;;;;;;;9.07;3.00;;;;;;;8.24;72.76;101173.97;1087681;54;20030;-79
2022/02/09 07:13:17;;;;;;;5.90;2.85;;;;;;;8.25;73.08;101180.16;1087436;54;20034;-80
2022/02/09 07:14:28;;;;;;;8.02;2.90;;;;;;;8.27;72.73;101179.09;1091479;46;20469;-81
2022/02/09 07:15:53;;;;;;;9.05;3.50;;;;;;;8.34;72.81;101173.34;1089239;46;20023;-81
2022/02/09 07:16:56;;;;;;;7.40;2.42;;;;;;;8.35;72.56;101177.72;1087603;54;20034;-81
2022/02/09 07:18:09;;;;;;;7.20;3.15;;;;;;;8.30;72.76;101182.53;1087305;54;20034;-79
2022/02/09 07:19:16;;;;;;;7.63;2.85;;;;;;;8.28;72.89;101185.25;1087408;54;20126;-80
